createdAt,value
2022-08-11T00:02:01.359Z,17.62
2022-08-11T00:04:37.162Z,17.61
2022-08-11T00:07:07.337Z,17.60
2022-08-11T00:09:39.538Z,17.57
2022-08-11T00:12:15.189Z,17.56
2022-08-11T00:14:44.616Z,17.54
2022-08-11T00:17:16.174Z,17.55
2022-08-11T00:20:13.297Z,17.56
2022-08-11T00:22:38.252Z,17.59
2022-08-11T00:25:12.882Z,17.61
2022-08-11T00:27:41.791Z,17.61
2022-08-11T00:30:12.111Z,17.61
2022-08-11T00:32:44.098Z,17.62
2022-08-11T00:35:51.763Z,17.63
2022-08-11T00:38:07.648Z,17.62
2022-08-11T00:40:55.378Z,17.65
2022-08-11T00:43:51.612Z,17.65
2022-08-11T00:46:25.831Z,17.63
2022-08-11T00:49:12.132Z,17.58
2022-08-11T00:52:07.849Z,17.55
2022-08-11T00:55:00.252Z,17.50
2022-08-11T00:57:38.504Z,17.44
2022-08-11T01:00:16.533Z,17.37
2022-08-11T01:03:03.108Z,17.31
2022-08-11T01:05:46.436Z,17.26
2022-08-11T01:08:49.362Z,17.21
2022-08-11T01:11:29.505Z,17.15
2022-08-11T01:14:35.236Z,17.09
2022-08-11T01:17:14.140Z,17.04
2022-08-11T01:20:39.465Z,16.99
2022-08-11T01:23:35.200Z,16.94
2022-08-11T01:26:41.674Z,16.93
2022-08-11T01:29:21.825Z,16.92
2022-08-11T01:32:03.640Z,16.91
2022-08-11T01:35:09.270Z,16.90
2022-08-11T01:38:18.813Z,16.89
2022-08-11T01:41:21.600Z,16.89
2022-08-11T01:44:33.501Z,16.88
2022-08-11T01:47:52.674Z,16.89
2022-08-11T01:50:40.236Z,16.90
2022-08-11T01:53:40.028Z,16.92
2022-08-11T01:56:33.582Z,16.93
2022-08-11T01:59:34.423Z,16.96
2022-08-11T02:02:47.880Z,16.97
2022-08-11T02:06:00.430Z,16.98
2022-08-11T02:08:44.178Z,17.01
2022-08-11T02:11:35.556Z,17.02
2022-08-11T02:14:24.492Z,16.98
2022-08-11T02:17:20.538Z,16.96
2022-08-11T02:20:35.327Z,16.93
2022-08-11T02:24:06.155Z,16.88
2022-08-11T02:26:23.474Z,16.84
2022-08-11T02:28:55.952Z,16.83
2022-08-11T02:32:28.480Z,16.81
2022-08-11T02:35:14.259Z,16.78
2022-08-11T02:38:07.793Z,16.78
2022-08-11T02:40:44.847Z,16.79
2022-08-11T02:43:31.474Z,16.79
2022-08-11T02:46:18.698Z,16.78
2022-08-11T02:49:19.347Z,16.76
2022-08-11T02:52:05.817Z,16.74
2022-08-11T02:54:52.731Z,16.72
2022-08-11T02:57:43.513Z,16.66
2022-08-11T03:00:17.800Z,16.61
2022-08-11T03:03:05.837Z,16.54
2022-08-11T03:05:57.308Z,16.43
2022-08-11T03:08:51.420Z,16.34
2022-08-11T03:11:41.274Z,16.26
2022-08-11T03:14:36.810Z,16.20
2022-08-11T03:17:29.846Z,16.16
2022-08-11T03:20:21.809Z,16.14
2022-08-11T03:23:04.806Z,16.15
2022-08-11T03:26:02.882Z,16.15
2022-08-11T03:28:36.589Z,16.18
2022-08-11T03:31:19.423Z,16.20
2022-08-11T03:34:06.678Z,16.23
2022-08-11T03:37:15.138Z,16.26
2022-08-11T03:40:00.242Z,16.30
2022-08-11T03:42:39.814Z,16.35
2022-08-11T03:45:26.856Z,16.41
2022-08-11T03:48:22.928Z,16.45
2022-08-11T03:51:15.365Z,16.51
2022-08-11T03:54:18.415Z,16.54
2022-08-11T03:57:10.875Z,16.55
2022-08-11T03:59:45.081Z,16.58
2022-08-11T04:02:31.994Z,16.60
2022-08-11T04:05:39.045Z,16.64
2022-08-11T04:08:34.389Z,16.69
2022-08-11T04:11:20.314Z,16.72
2022-08-11T04:14:38.603Z,16.73
2022-08-11T04:17:40.694Z,16.74
2022-08-11T04:20:45.572Z,16.79
2022-08-11T04:24:35.555Z,16.87
2022-08-11T04:26:40.670Z,16.91
2022-08-11T04:29:20.951Z,16.96
2022-08-11T04:32:24.438Z,17.02
2022-08-11T04:35:29.674Z,17.05
2022-08-11T04:38:35.016Z,17.10
2022-08-11T04:41:21.331Z,17.17
2022-08-11T04:44:32.003Z,17.23
2022-08-11T04:48:01.475Z,17.28
2022-08-11T04:51:17.580Z,17.34
2022-08-11T04:54:11.137Z,17.40
2022-08-11T04:57:02.082Z,17.44
2022-08-11T05:00:07.736Z,17.48
2022-08-11T05:03:00.196Z,17.52
2022-08-11T05:06:07.057Z,17.57
2022-08-11T05:09:11.179Z,17.61
2022-08-11T05:11:49.899Z,17.57
2022-08-11T05:14:43.673Z,17.60
2022-08-11T05:17:34.985Z,17.66
2022-08-11T05:20:22.520Z,17.74
2022-08-11T05:23:11.279Z,17.80
2022-08-11T05:26:43.340Z,17.89
2022-08-11T05:29:20.297Z,17.98
2022-08-11T05:32:18.108Z,18.05
2022-08-11T05:34:54.561Z,18.10
2022-08-11T05:37:34.209Z,18.16
2022-08-11T05:40:27.370Z,18.19
2022-08-11T05:43:27.286Z,18.23
2022-08-11T05:46:22.597Z,18.27
2022-08-11T05:49:10.820Z,18.33
2022-08-11T05:52:05.759Z,18.39
2022-08-11T05:55:05.995Z,18.47
2022-08-11T05:57:48.589Z,18.53
2022-08-11T06:00:20.643Z,18.62
2022-08-11T06:02:56.194Z,18.71
2022-08-11T06:05:38.454Z,18.81
2022-08-11T06:08:14.005Z,18.92
2022-08-11T06:10:44.720Z,19.02
2022-08-11T06:13:17.521Z,19.13
2022-08-11T06:15:48.636Z,19.23
2022-08-11T06:18:17.384Z,19.30
2022-08-11T06:20:55.198Z,19.37
2022-08-11T06:23:30.794Z,19.40
2022-08-11T06:26:00.403Z,19.36
2022-08-11T06:28:36.100Z,19.35
2022-08-11T06:31:14.399Z,19.34
2022-08-11T06:34:04.394Z,19.34
2022-08-11T06:36:41.897Z,19.34
2022-08-11T06:39:31.796Z,19.32
2022-08-11T06:42:07.324Z,19.30
2022-08-11T06:45:01.916Z,19.29
2022-08-11T06:47:30.793Z,19.28
2022-08-11T06:50:19.477Z,19.26
2022-08-11T06:52:48.616Z,19.28
2022-08-11T06:55:57.705Z,19.30
2022-08-11T06:58:49.780Z,19.34
2022-08-11T07:01:46.835Z,19.38
2022-08-11T07:04:31.431Z,19.41
2022-08-11T07:07:44.058Z,19.45
2022-08-11T07:11:03.119Z,19.49
2022-08-11T07:13:55.045Z,19.52
2022-08-11T07:16:29.778Z,19.56
2022-08-11T07:19:23.291Z,19.59
2022-08-11T07:22:11.286Z,19.62
2022-08-11T07:25:11.920Z,19.65
2022-08-11T07:28:06.834Z,19.70
2022-08-11T07:30:40.750Z,19.73
2022-08-11T07:33:10.873Z,19.77
2022-08-11T07:36:01.161Z,19.80
2022-08-11T07:38:47.277Z,19.84
2022-08-11T07:41:17.890Z,19.89
2022-08-11T07:43:50.533Z,19.91
2022-08-11T07:46:38.688Z,19.95
2022-08-11T07:49:28.474Z,20.00
2022-08-11T07:52:15.694Z,20.04
2022-08-11T07:54:46.363Z,20.09
2022-08-11T07:57:59.504Z,20.14
2022-08-11T08:00:45.549Z,20.19
2022-08-11T08:03:39.546Z,20.25
2022-08-11T08:06:42.476Z,20.26
2022-08-11T08:09:30.632Z,20.32
2022-08-11T08:12:20.899Z,20.38
2022-08-11T08:15:09.313Z,20.47
2022-08-11T08:18:20.879Z,20.57
2022-08-11T08:20:50.385Z,20.68
2022-08-11T08:23:39.802Z,20.80
2022-08-11T08:26:31.295Z,20.91
2022-08-11T08:29:21.543Z,21.00
2022-08-11T08:31:51.296Z,21.07
2022-08-11T08:34:19.876Z,21.14
2022-08-11T08:36:51.034Z,21.23
2022-08-11T08:39:23.173Z,21.32
2022-08-11T08:41:56.330Z,21.40
2022-08-11T08:44:42.100Z,21.50
2022-08-11T08:47:42.310Z,21.61
2022-08-11T08:50:21.645Z,21.73
2022-08-11T08:53:05.727Z,21.87
2022-08-11T08:55:35.124Z,21.99
2022-08-11T08:58:03.865Z,22.10
2022-08-11T09:00:46.273Z,22.20
2022-08-11T09:03:39.406Z,22.32
2022-08-11T09:06:03.428Z,22.45
2022-08-11T09:08:33.962Z,22.54
2022-08-11T09:11:24.431Z,22.59
2022-08-11T09:14:05.039Z,22.62
2022-08-11T09:16:37.066Z,22.65
2022-08-11T09:19:07.801Z,22.68
2022-08-11T09:21:49.216Z,22.74
2022-08-11T09:24:38.867Z,22.85
2022-08-11T09:27:08.470Z,22.98
2022-08-11T09:29:38.694Z,23.08
2022-08-11T09:32:08.600Z,23.20
2022-08-11T09:34:39.041Z,23.34
2022-08-11T09:37:54.326Z,23.50
2022-08-11T09:40:33.842Z,23.67
2022-08-11T09:43:25.278Z,23.81
2022-08-11T09:45:55.582Z,24.00
2022-08-11T09:48:26.571Z,24.18
2022-08-11T09:50:57.247Z,24.35
2022-08-11T09:53:36.856Z,24.43
2022-08-11T09:57:05.503Z,24.52
2022-08-11T09:59:34.815Z,24.67
2022-08-11T10:02:06.891Z,24.82
2022-08-11T10:04:45.545Z,24.94
2022-08-11T10:07:17.094Z,25.07
2022-08-11T10:09:56.560Z,25.22
2022-08-11T10:12:37.359Z,25.38
2022-08-11T10:15:28.579Z,25.52
2022-08-11T10:18:21.520Z,25.66
2022-08-11T10:20:52.359Z,25.82
2022-08-11T10:24:01.279Z,25.93
2022-08-11T10:26:49.126Z,26.02
2022-08-11T10:29:37.545Z,26.11
2022-08-11T10:32:33.210Z,26.12
2022-08-11T10:35:13.792Z,26.13
2022-08-11T10:38:08.357Z,26.13
2022-08-11T10:40:35.947Z,26.07
2022-08-11T10:43:07.205Z,26.01
2022-08-11T10:45:56.013Z,25.95
2022-08-11T10:48:29.111Z,25.91
2022-08-11T10:51:13.967Z,25.86
2022-08-11T10:54:04.166Z,25.77
2022-08-11T10:56:55.416Z,25.75
2022-08-11T10:59:27.853Z,25.75
2022-08-11T11:01:58.585Z,25.73
2022-08-11T11:04:58.846Z,25.69
2022-08-11T11:08:03.440Z,25.75
2022-08-11T11:10:32.840Z,25.73
2022-08-11T11:13:19.862Z,25.58
2022-08-11T11:16:06.973Z,25.50
2022-08-11T11:18:37.220Z,25.45
2022-08-11T11:21:14.897Z,25.40
2022-08-11T11:24:01.807Z,25.38
2022-08-11T11:26:35.614Z,25.38
2022-08-11T11:29:19.250Z,25.40
2022-08-11T11:31:50.565Z,25.41
2022-08-11T11:34:33.517Z,25.45
2022-08-11T11:37:04.252Z,25.55
2022-08-11T11:39:34.009Z,25.75
2022-08-11T11:42:10.842Z,25.98
2022-08-11T11:44:40.347Z,26.25
2022-08-11T11:47:11.306Z,26.51
2022-08-11T11:49:44.300Z,26.75
2022-08-11T11:52:19.134Z,26.98
2022-08-11T11:54:50.546Z,27.19
2022-08-11T11:57:38.619Z,27.37
2022-08-11T12:00:33.618Z,27.54
2022-08-11T12:03:05.619Z,27.67
2022-08-11T12:05:38.041Z,27.83
2022-08-11T12:08:23.400Z,27.93
2022-08-11T12:11:14.139Z,28.06
2022-08-11T12:13:46.282Z,28.26
2022-08-11T12:17:27.391Z,28.42
2022-08-11T12:19:55.852Z,28.52
2022-08-11T12:22:44.423Z,28.59
2022-08-11T12:25:31.520Z,28.54
2022-08-11T12:28:00.244Z,28.40
2022-08-11T12:30:29.288Z,28.20
2022-08-11T12:32:57.781Z,28.03
2022-08-11T12:35:26.980Z,27.91
2022-08-11T12:38:04.776Z,27.79
2022-08-11T12:44:06.259Z,27.49
2022-08-11T12:46:40.101Z,27.38
2022-08-11T12:49:34.176Z,27.28
2022-08-11T12:52:15.851Z,27.18
2022-08-11T12:54:54.671Z,27.09
2022-08-11T12:57:47.220Z,27.01
2022-08-11T13:00:35.191Z,26.92
2022-08-11T13:03:24.417Z,26.81
2022-08-11T13:05:55.932Z,26.71
2022-08-11T13:08:26.131Z,26.62
2022-08-11T13:11:55.468Z,26.54
2022-08-11T13:14:27.669Z,26.46
2022-08-11T13:17:14.988Z,26.41
2022-08-11T13:19:49.567Z,26.32
2022-08-11T13:22:20.524Z,26.26
2022-08-11T13:24:50.263Z,26.19
2022-08-11T13:27:20.895Z,26.15
2022-08-11T13:29:50.501Z,26.11
2022-08-11T13:32:22.284Z,26.09
2022-08-11T13:34:50.644Z,26.08
2022-08-11T13:37:20.709Z,26.07
2022-08-11T13:40:10.972Z,26.10
2022-08-11T13:42:40.845Z,26.23
2022-08-11T13:45:09.957Z,26.41
2022-08-11T13:47:39.761Z,26.56
2022-08-11T13:50:13.686Z,26.64
2022-08-11T13:52:43.753Z,26.69
2022-08-11T13:55:50.811Z,26.82
2022-08-11T13:58:20.467Z,26.91
2022-08-11T14:01:01.370Z,26.97
2022-08-11T14:04:30.134Z,27.02
2022-08-11T14:06:43.989Z,27.06
2022-08-11T14:09:14.225Z,27.13
2022-08-11T14:12:21.452Z,27.24
2022-08-11T14:15:07.811Z,27.27
2022-08-11T14:17:49.010Z,27.20
2022-08-11T14:20:39.693Z,27.09
2022-08-11T14:23:14.333Z,27.03
2022-08-11T14:26:03.284Z,27.05
2022-08-11T14:28:44.423Z,27.12
2022-08-11T14:31:15.833Z,27.21
2022-08-11T14:34:00.546Z,27.29
2022-08-11T14:36:34.232Z,27.40
2022-08-11T14:39:06.133Z,27.52
2022-08-11T14:42:10.067Z,27.63
2022-08-11T14:45:05.996Z,27.72
2022-08-11T14:47:37.910Z,27.76
2022-08-11T14:50:12.102Z,27.72
2022-08-11T14:53:01.463Z,27.66
2022-08-11T14:55:50.999Z,27.63
2022-08-11T14:58:22.040Z,27.58
2022-08-11T15:00:54.740Z,27.56
2022-08-11T15:03:28.100Z,27.57
2022-08-11T15:06:00.188Z,27.58
2022-08-11T15:08:51.806Z,27.58
2022-08-11T15:11:42.203Z,27.59
2022-08-11T15:14:12.829Z,27.60
2022-08-11T15:17:02.820Z,27.61
2022-08-11T15:19:40.381Z,27.64
2022-08-11T15:22:29.786Z,27.66
2022-08-11T15:24:59.568Z,27.68
2022-08-11T15:27:49.590Z,27.67
2022-08-11T15:30:36.185Z,27.66
2022-08-11T15:33:27.735Z,27.63
2022-08-11T15:36:16.877Z,27.59
2022-08-11T15:38:57.749Z,27.56
2022-08-11T15:41:58.428Z,27.52
2022-08-11T15:45:06.057Z,27.48
2022-08-11T15:47:41.335Z,27.44
2022-08-11T15:50:20.662Z,27.38
2022-08-11T15:52:56.620Z,27.33
2022-08-11T15:55:26.150Z,27.29
2022-08-11T15:58:14.888Z,27.23
2022-08-11T16:01:08.641Z,27.16
2022-08-11T16:04:09.565Z,27.09
2022-08-11T16:06:49.921Z,27.03
2022-08-11T16:09:23.812Z,26.98
2022-08-11T16:11:54.662Z,26.93
2022-08-11T16:14:43.222Z,26.89
2022-08-11T16:17:15.261Z,26.86
2022-08-11T16:19:46.841Z,26.82
2022-08-11T16:22:20.474Z,26.79
2022-08-11T16:27:03.321Z,26.74
2022-08-11T16:27:45.600Z,26.67
2022-08-11T16:30:15.126Z,26.61
2022-08-11T16:32:53.192Z,26.57
2022-08-11T16:35:43.705Z,26.52
2022-08-11T16:38:32.997Z,26.45
2022-08-11T16:41:11.821Z,26.37
2022-08-11T16:44:06.606Z,26.29
2022-08-11T16:46:54.974Z,26.20
2022-08-11T16:49:28.523Z,26.10
2022-08-11T16:52:03.963Z,26.01
2022-08-11T16:54:35.962Z,25.94
2022-08-11T16:57:36.077Z,25.88
2022-08-11T17:00:07.867Z,25.81
2022-08-11T17:02:58.850Z,25.74
2022-08-11T17:05:54.322Z,25.67
2022-08-11T17:08:57.112Z,25.58
2022-08-11T17:12:06.180Z,25.49
2022-08-11T17:14:52.272Z,25.36
2022-08-11T17:17:39.981Z,25.19
2022-08-11T17:20:43.423Z,25.03
2022-08-11T17:23:24.075Z,24.87
2022-08-11T17:26:03.250Z,24.73
2022-08-11T17:28:35.273Z,24.60
2022-08-11T17:31:24.743Z,24.50
2022-08-11T17:34:14.735Z,24.37
2022-08-11T17:36:45.831Z,24.24
2022-08-11T17:39:15.731Z,24.15
2022-08-11T17:42:23.496Z,24.05
2022-08-11T17:45:10.919Z,23.94
2022-08-11T17:47:58.953Z,23.84
2022-08-11T17:50:28.785Z,23.74
2022-08-11T17:53:28.078Z,23.65
2022-08-11T17:56:32.808Z,23.54
2022-08-11T17:59:35.206Z,23.43
2022-08-11T18:02:34.377Z,23.33
2022-08-11T18:05:09.579Z,23.21
2022-08-11T18:08:02.840Z,23.11
2022-08-11T18:10:51.992Z,23.00
2022-08-11T18:13:42.138Z,22.90
2022-08-11T18:16:29.778Z,22.81
2022-08-11T18:19:16.998Z,22.71
2022-08-11T18:22:14.422Z,22.61
2022-08-11T18:25:07.429Z,22.50
2022-08-11T18:27:56.987Z,22.40
2022-08-11T18:30:45.537Z,22.31
2022-08-11T18:33:50.573Z,22.22
2022-08-11T18:36:44.754Z,22.10
2022-08-11T18:39:33.305Z,21.98
2022-08-11T18:42:29.584Z,21.89
2022-08-11T18:45:21.987Z,21.78
2022-08-11T18:48:15.455Z,21.69
2022-08-11T18:51:31.098Z,21.59
2022-08-11T18:54:16.823Z,21.50
2022-08-11T18:57:05.683Z,21.41
2022-08-11T18:59:57.831Z,21.34
2022-08-11T19:02:48.724Z,21.26
2022-08-11T19:06:31.816Z,21.17
2022-08-11T19:08:56.760Z,21.07
2022-08-11T19:11:45.212Z,20.97
2022-08-11T19:14:33.863Z,20.87
2022-08-11T19:17:44.786Z,20.78
2022-08-11T19:20:36.972Z,20.68
2022-08-11T19:23:25.629Z,20.62
2022-08-11T19:26:13.673Z,20.55
2022-08-11T19:29:03.349Z,20.48
2022-08-11T19:31:52.003Z,20.41
2022-08-11T19:34:41.373Z,20.34
2022-08-11T19:37:29.724Z,20.28
2022-08-11T19:40:29.027Z,20.21
2022-08-11T19:43:25.881Z,20.15
2022-08-11T19:46:16.906Z,20.09
2022-08-11T19:49:06.255Z,20.04
2022-08-11T19:51:54.850Z,19.99
2022-08-11T19:54:47.761Z,19.91
2022-08-11T19:57:40.108Z,19.84
2022-08-11T20:00:37.489Z,19.77
2022-08-11T20:03:25.086Z,19.70
2022-08-11T20:06:11.698Z,19.64
2022-08-11T20:09:01.474Z,19.58
2022-08-11T20:11:57.918Z,19.53
2022-08-11T20:14:49.433Z,19.48
2022-08-11T20:17:38.193Z,19.45
2022-08-11T20:20:26.236Z,19.41
2022-08-11T20:23:15.805Z,19.37
2022-08-11T20:26:20.461Z,19.33
2022-08-11T20:29:11.244Z,19.29
2022-08-11T20:31:59.352Z,19.25
2022-08-11T20:34:47.628Z,19.20
2022-08-11T20:37:36.621Z,19.15
2022-08-11T20:40:24.252Z,19.09
2022-08-11T20:43:16.738Z,19.06
2022-08-11T20:46:21.494Z,19.00
2022-08-11T20:49:10.798Z,18.96
2022-08-11T20:52:01.676Z,18.91
2022-08-11T20:54:55.963Z,18.86
2022-08-11T20:58:03.942Z,18.80
2022-08-11T21:00:54.335Z,18.75
2022-08-11T21:03:52.387Z,18.71
2022-08-11T21:06:49.188Z,18.67
2022-08-11T21:09:58.285Z,18.63
2022-08-11T21:12:50.710Z,18.59
2022-08-11T21:16:02.942Z,18.56
2022-08-11T21:18:52.468Z,18.54
2022-08-11T21:21:45.353Z,18.52
2022-08-11T21:24:34.364Z,18.52
2022-08-11T21:27:25.468Z,18.52
2022-08-11T21:30:14.029Z,18.51
2022-08-11T21:33:02.679Z,18.51
2022-08-11T21:35:51.483Z,18.50
2022-08-11T21:38:38.453Z,18.50
2022-08-11T21:41:26.362Z,18.51
2022-08-11T21:44:14.428Z,18.51
2022-08-11T21:47:01.958Z,18.51
2022-08-11T21:49:50.204Z,18.52
2022-08-11T21:52:37.241Z,18.50
2022-08-11T21:55:24.463Z,18.45
2022-08-11T21:58:12.479Z,18.41
2022-08-11T22:00:59.925Z,18.36
2022-08-11T22:03:49.759Z,18.31
2022-08-11T22:06:38.854Z,18.26
2022-08-11T22:09:26.303Z,18.21
2022-08-11T22:12:34.352Z,18.14
2022-08-11T22:15:20.377Z,18.07
2022-08-11T22:18:07.187Z,18.00
2022-08-11T22:20:55.334Z,17.94
2022-08-11T22:23:44.184Z,17.88
2022-08-11T22:26:33.361Z,17.82
2022-08-11T22:29:20.270Z,17.77
2022-08-11T22:32:26.741Z,17.71
2022-08-11T22:35:15.299Z,17.65
2022-08-11T22:38:04.748Z,17.61
2022-08-11T22:40:53.325Z,17.57
2022-08-11T22:43:40.134Z,17.54
2022-08-11T22:46:26.885Z,17.52
2022-08-11T22:49:14.935Z,17.46
2022-08-11T22:52:03.232Z,17.42
2022-08-11T22:54:51.164Z,17.38
2022-08-11T22:57:40.129Z,17.34
2022-08-11T23:00:30.331Z,17.31
2022-08-11T23:03:36.826Z,17.26
2022-08-11T23:06:26.577Z,17.20
2022-08-11T23:09:15.632Z,17.17
2022-08-11T23:12:07.180Z,17.14
2022-08-11T23:14:58.372Z,17.10
2022-08-11T23:17:46.977Z,17.07
2022-08-11T23:20:38.443Z,17.05
2022-08-11T23:23:27.823Z,17.04
2022-08-11T23:26:15.756Z,17.04
2022-08-11T23:29:05.425Z,17.04
2022-08-11T23:31:54.969Z,17.04
2022-08-11T23:35:03.835Z,17.03
2022-08-11T23:37:52.184Z,17.04
2022-08-11T23:40:38.731Z,17.07
2022-08-11T23:43:26.933Z,17.08
2022-08-11T23:46:13.641Z,17.07
2022-08-11T23:49:00.764Z,17.04
2022-08-11T23:51:48.702Z,16.99
2022-08-11T23:54:37.589Z,16.93
2022-08-11T23:57:24.978Z,16.89
